Potomac, Virginia
Current Conditions -  °F | °C
As of 12:52 AM on Friday 31 Oct 2014 (Local Time) from KDCA Reporting Station
Few Clouds Few Clouds  
Wind Chill: 47°   Ceiling: Unl
Heat Index: 49°   Visibility: 10mi
Dew Point: 36°   Wind: 6mph
Humidity: 61%   Direction: 320°NW
Pressure: 30.04"   Gusts: NA
Location:  38.8194°N, 77.0596°W
Report Text: KDCA 310452Z 32005KT 10SM FEW060 09/02 A3004 RMK AO2 SLP172 T00940022 401720094
Loading
Personal Weather Stations






























Interactive Weather Map
Tropical Storm Tracking
New forecast layout! Learn more

10-Day Weather Forecast

Advertisements
Track Severe Weather on mobile